Eduardo Monteiro

Chefscout - Braga
4 Apr 2027
Sonntag
Verarbeitung

Persönlichkeit

Anpassungsfähigkeit (4) Ehrgeiz (2) Kontroverse (8) Loyalität (20) Druck (6) Professionalität (10) Fairness (6) Temperament (12)

Profil

Trainerstil Demokratisch
Lizenz Nationale B
Entschlossenheit 15
Menschenführung 9
Motivation 13
Disziplin 15
Arbeitszufriedenheit
100%
Ermüdung
0%
Rolle Chefscout
Gehalt 105.7K p/W
Vertrag 14.03.2030

Leistung

Verhalten Gut
Trainingseffektivität
40%
Spielerentwicklung
55%
Verletzungsprävention
30%
Taktische Umsetzung
55%

Letzte Ereignisse

Nahm an einer Scouting-Besprechung teil jetzt
Empfahl ein Transferziel jetzt
Empfahl ein Transferziel jetzt
Nahm an einer Scouting-Besprechung teil jetzt
Empfahl ein Transferziel jetzt
Nahm an einer Scouting-Besprechung teil jetzt
Nahm an einer Scouting-Besprechung teil jetzt
Spieler begutachtet 7T her

Aktuell beobachtet

137
Spieler Verein Status Fähigkeit Vertrauen Beobachtet Zuletzt beobachtet Letzte Stimme
Percy Erasmus SuperSport United Aktiv 126 / 129 40% 5 02.04.2027 -
Wandile Duba Bidvest Wits Aktiv 90 / 98 40% 2 02.04.2027 -
Mihailo Ivanović Millwall Aktiv 121 / 130 40% 1 30.03.2027 -
Giorgos Koutsias Famalicao Aktiv 125 / 113 40% 1 30.03.2027 -
Itumeleng Tau Ajax Cape Town Aktiv 125 / 111 40% 4 27.03.2027 -
Lorent Tolaj Plymouth Argyle Aktiv 122 / 114 40% 2 27.03.2027 -
Luciano Gondou CSKA Moscow Aktiv 123 / 130 40% 4 25.03.2027 -
Henrique Araújo Casa Pia Aktiv 125 / 118 40% 4 25.03.2027 -
Gustavo Silva Vitoria Guimaraes Aktiv 114 / 121 40% 2 23.03.2027 -
Adriano Bertaccini Anderlecht Aktiv 133 / 121 40% 6 20.03.2027 -
Korede Osundina Casa Pia Aktiv 112 / 125 40% 3 19.03.2027 -
Aral Şimşir Trabzonspor Aktiv 132 / 130 40% 2 19.03.2027 -
Morgan Whittaker Middlesbrough Aktiv 134 / 136 40% 2 18.03.2027 -
Tamble Monteiro Rio Ave Aktiv 113 / 123 40% 3 18.03.2027 -
Etiosa Ighodaro Kaizer Chiefs Aktiv 96 / 105 40% 2 16.03.2027 -
Rumarn Burrell Queens Park Rangers Aktiv 122 / 125 40% 3 16.03.2027 -
Jonathan Acquah WAFA Aktiv 74 / 79 40% 1 15.03.2027 -
Stephen Amankona Aduana Stars Aktiv 97 / 90 40% 1 13.03.2027 -
Lucas Duarte Felgueiras Aktiv 97 / 106 40% 1 13.03.2027 -
Camilo Durán Bloemfontein Celtic Aktiv 126 / 116 40% 6 12.03.2027 -
Kaio Jorge Cruzeiro Aktiv 143 / 145 40% 5 11.03.2027 -
Figueiredo Alverca Aktiv 141 / 133 40% 5 11.03.2027 -
Nicolò Tresoldi Club Brugge Aktiv 136 / 140 40% 5 09.03.2027 -
Gonzalo Plata Dinamo Moscow Aktiv 153 / 132 40% 3 03.03.2027 -
Mathias Jørgensen Blackburn Rovers Aktiv 112 / 123 40% 2 03.03.2027 -
Martín Tejón Maritimo Aktiv 125 / 126 40% 1 01.03.2027 -
Afimico Pululu Al-Hazem Aktiv 125 / 120 40% 2 28.02.2027 -
Jalen Blesa Rio Ave Aktiv 116 / 123 40% 1 19.02.2027 -
Josh Coburn Millwall Aktiv 116 / 113 40% 1 17.02.2027 -
Brayan León Mamelodi Sundowns Aktiv 114 / 115 40% 3 16.02.2027 -
Evidence Makgopa Orlando Pirates Aktiv 118 / 104 40% 2 09.02.2027 -
Aidomo Emakhu Oxford United Aktiv 118 / 127 40% 1 07.02.2027 -
Michy Fellaini KV Oostende Abgelehnt 125 / 133 40% 7 03.02.2027 Ablehnen
Sam Greenwood Bristol City Aktiv 117 / 118 40% 3 03.02.2027 -
Malcom Al Jazira Aktiv 152 / 145 40% 1 25.01.2027 -
Dany Mota Monza Aktiv 130 / 132 40% 1 25.01.2027 -
Fernando Fonseca Leixões Aktiv 120 / 110 55% 1 18.01.2027 -
Jovon Makama Norwich City Aktiv 122 / 130 40% 1 18.01.2027 -
Itumeleng Tau Ajax Cape Town Verloren 108 / 114 40% 1 12.01.2027 -
Camilo Durán Bloemfontein Celtic Verloren 118 / 113 40% 2 01.01.2027 -
Mao Hosoya Corinthians Verhandlung 134 / 135 67% 1 01.01.2027 Befürworten
Marvin Keller Young Boys Verloren 136 / 137 67% 1 01.01.2027 -
Bitello Dinamo Moscow Bericht bereit 135 / 135 68% 1 01.01.2027 Befürworten
Marcel Ruiz Toluca Aktiv 140 / 141 66% 1 01.01.2027 Befürworten
Fashion Sakala Al-Fayha Verloren 137 / 125 40% 3 30.12.2026 -
Rafa Benfica Verloren 138 / 143 40% 2 30.12.2026 -
Ondrej Duda Zamalek Aktiv 124 / 138 40% 1 30.12.2026 -
Facundo Pellistri Panathinaikos Aktiv 144 / 132 40% 1 30.12.2026 -
Stav Toriel Hapoel Tel Aviv Aktiv 129 / 125 40% 1 29.12.2026 -
Mehdi Ghayedi Al Nasr Aktiv 116 / 127 40% 1 29.12.2026 -
Jason Januzaj Mouscron Aktiv 159 / 142 40% 2 26.12.2026 -
Oli McBurnie Hull City Aktiv 133 / 128 40% 4 25.12.2026 -
Mousa Meunier KV Oostende Verloren 139 / 122 40% 3 24.12.2026 -
Luis Vázquez Birmingham Aktiv 128 / 130 40% 3 24.12.2026 -
Marco Pineda VfB Stuttgart Aktiv 147 / 141 40% 7 23.12.2026 Beobachten
Veljko Birmančević Ferencvaros Aktiv 121 / 137 40% 2 22.12.2026 -
Hwang Hee-Chan Wolverhampton Aktiv 124 / 136 40% 2 21.12.2026 -
Mohamed Elyounoussi FC Copenhagen Aktiv 144 / 127 40% 2 20.12.2026 -
Piotr Zieliński Inter Aktiv 144 / 149 40% 1 20.12.2026 -
Sorriso Famalicao Aktiv 118 / 126 40% 4 19.12.2026 -
Marquinhos Spartak Moscow Aktiv 126 / 120 40% 1 19.12.2026 -
Nemanja Radonjić Crvena Zvezda Aktiv 122 / 125 40% 1 17.12.2026 -
Theo Bongonda Al-Faisaly Aktiv 147 / 130 40% 1 17.12.2026 -
Mathias Kvistgaarden Norwich City Aktiv 131 / 119 40% 1 16.12.2026 -
Talisca Fenerbahce Aktiv 147 / 146 40% 5 14.12.2026 -
Paulo Dybala AS Roma Aktiv 145 / 149 40% 1 13.12.2026 -
Youssef En-Nesyri Al-Ittihad Aktiv 131 / 148 40% 1 11.12.2026 -
Leandro Trossard Besiktas Aktiv 177 / 155 40% 1 10.12.2026 -
Romelu Lukaku Fenerbahce Aktiv 160 / 165 40% 4 07.12.2026 Beobachten
Ola Solbakken FC Nordsjaelland Aktiv 119 / 122 40% 1 07.12.2026 -
Iqraam Rayners Mamelodi Sundowns Aktiv 120 / 138 40% 5 04.12.2026 -
Soufiane Rahimi Al Ain Aktiv 124 / 143 40% 1 04.12.2026 -
Domagoj Drožđek Tractor Aktiv 109 / 115 40% 2 01.12.2026 -
Bertrand Traoré Sunderland Aktiv 128 / 131 40% 4 01.12.2026 -
Nicolás Fernández Belgrano Aktiv 121 / 127 40% 4 27.11.2026 -
Dom Ballard Leyton Orient Aktiv 130 / 128 40% 1 26.11.2026 -
Yousef Salech Cardiff City Aktiv 117 / 127 40% 1 25.11.2026 -
Musa Barrow Al-Khaleej Aktiv 123 / 144 40% 2 24.11.2026 -
Erik Botheim Malmo FF Aktiv 125 / 121 40% 2 20.11.2026 -
Nicolás Ibáñez Cruz Azul Aktiv 127 / 130 40% 2 19.11.2026 -
Axel Openda KV Oostende Aktiv 134 / 128 40% 2 18.11.2026 -
Diber Cambindo Leon Aktiv 118 / 123 40% 3 15.11.2026 -
Erik Lira Cruz Azul Aktiv 132 / 132 40% 2 15.11.2026 -
Iván Martín Racing Club Aktiv 145 / 147 40% 1 15.11.2026 -
Alexis Vega Toluca Aktiv 148 / 145 40% 5 14.11.2026 -
Ángel Correa River Plate Aktiv 145 / 147 40% 3 11.11.2026 -
Mauro Arambarri River Plate Aktiv 164 / 155 40% 2 11.11.2026 -
Jean-Luc Morin Tours Aktiv 134 / 139 40% 2 08.11.2026 -
Moussa Dembélé Al-Ettifaq Aktiv 114 / 130 40% 2 08.11.2026 -
Cesar Corona Veracruz Aktiv 139 / 140 40% 3 07.11.2026 -
Ashkan Shojaei Siah Jamegan Aktiv 110 / 123 40% 1 07.11.2026 -
José Paradela Cruz Azul Aktiv 135 / 133 40% 1 05.11.2026 -
Gianluca Prestianni Benfica Aktiv 145 / 145 40% 1 05.11.2026 -
Lukáš Provod Slavia Prague Aktiv 163 / 152 40% 4 03.11.2026 -
Nuno Santos Sporting CP Aktiv 141 / 144 40% 2 02.11.2026 -
Exequiel Zeballos Boca Juniors Aktiv 131 / 135 40% 1 02.11.2026 -
Paulinho Toluca Aktiv 150 / 137 40% 2 30.10.2026 -
Carles Gil New England Revolution Aktiv 145 / 131 40% 3 27.10.2026 -
Ola Brynhildsen Bodo/Glimt Aktiv 115 / 116 40% 1 25.10.2026 -
Hugo Cuypers Monterrey Aktiv 116 / 126 40% 1 24.10.2026 -
Henry Martín Club America Aktiv 138 / 134 40% 2 23.10.2026 -
Haris Tabaković Red Bull Salzburg Aktiv 138 / 133 40% 1 23.10.2026 -
Achraf Bencharki Al Ahly Aktiv 109 / 135 40% 3 22.10.2026 -
Rodrigo De Paul Inter Miami CF Aktiv 152 / 153 40% 2 18.10.2026 -
Kein Sato FC Tokyo Aktiv 114 / 132 40% 1 15.10.2026 -
Vinícius Lopes Santa Clara Aktiv 112 / 125 40% 2 14.10.2026 Mehr Infos nötig
Jesús Ricardo Angulo Toluca Aktiv 142 / 131 40% 1 11.10.2026 -
Talles Magno New York City Aktiv 129 / 127 40% 3 08.10.2026 -
Manfred Ugalde Spartak Moscow Aktiv 114 / 128 40% 1 07.10.2026 -
João Palhinha Benfica Aktiv 157 / 153 40% 1 06.10.2026 -
Sebastián Villa Boca Juniors Aktiv 127 / 125 40% 3 04.10.2026 -
Ritsu Doan Gamba Osaka Aktiv 146 / 145 40% 1 04.10.2026 -
Tadeo Allende Inter Miami CF Aktiv 120 / 120 40% 1 03.10.2026 -
Sam Surridge Nashville SC Aktiv 144 / 126 40% 2 30.09.2026 -
Kévin Denkey FC Cincinnati Aktiv 122 / 132 40% 1 29.09.2026 -
Leo Ceara Kashima Antlers Aktiv 142 / 144 40% 1 28.09.2026 -
Peter Shalulile Mamelodi Sundowns Aktiv 117 / 120 40% 1 24.09.2026 -
Álex Arce Independiente Rivadavia Aktiv 127 / 125 40% 1 24.09.2026 -
Marko Livaja Hajduk Split Aktiv 141 / 129 40% 1 23.09.2026 -
Jhon Córdoba Krasnodar Aktiv 133 / 137 40% 1 23.09.2026 -
Orbelín Pineda Monterrey Aktiv 142 / 144 40% 1 23.09.2026 -
Nicolás Fernández Mercau New York City Aktiv 139 / 137 40% 1 21.09.2026 -
Yanis Begraoui Estoril Praia Aktiv 120 / 139 40% 2 17.09.2026 -
Joaquín Correa Estudiantes Aktiv 126 / 132 40% 1 16.09.2026 -
Rafael Santos Borré River Plate Aktiv 127 / 127 40% 1 14.09.2026 -
Wessam Abou Ali Columbus Crew Aktiv 120 / 133 40% 2 11.09.2026 -
Dejan Joveljić Seattle Sounders Aktiv 127 / 126 40% 2 11.09.2026 -
Thiago Almada River Plate Aktiv 143 / 141 40% 1 11.09.2026 -
Bruno Larregui Juventud Aktiv 108 / 116 40% 1 10.09.2026 -
Juan Cruz de los Santos Nacional Aktiv 132 / 127 40% 1 10.09.2026 -
Jesus Ferreira Seattle Sounders Aktiv 120 / 124 40% 1 09.08.2026 -
Pep Biel Charlotte Football Club Aktiv 125 / 134 40% 1 08.08.2026 -
Fotis Ioannidis Sporting CP Aktiv 134 / 129 40% 1 07.08.2026 -
Luis Suárez Sporting CP Aktiv 148 / 155 40% 1 07.08.2026 -
Tiago Leite Felgueiras Aktiv 114 / 105 51% 1 03.08.2026 -
Richarlison Tottenham Aktiv 146 / 141 40% 1 01.08.2026 -
Pablo Durán Celta Aktiv 142 / 133 40% 1 01.08.2026 -